sensor_id;sensor_type;location;lat;lon;timestamp;pressure;altitude;pressure_sealevel;temperature;humidity
72855;BME280;60991;51.278;22.550;2023-09-19T00:00:57;98723.88;;;21.08;63.94
72855;BME280;60991;51.278;22.550;2023-09-19T00:02:28;98726.84;;;21.16;63.59
72855;BME280;60991;51.278;22.550;2023-09-19T00:03:58;98725.78;;;21.08;63.72
72855;BME280;60991;51.278;22.550;2023-09-19T00:05:29;98724.03;;;21.12;63.87
72855;BME280;60991;51.278;22.550;2023-09-19T00:06:59;98720.53;;;21.12;63.85
72855;BME280;60991;51.278;22.550;2023-09-19T00:08:30;98726.44;;;21.05;64.01
72855;BME280;60991;51.278;22.550;2023-09-19T00:10:00;98721.19;;;21.08;63.71
72855;BME280;60991;51.278;22.550;2023-09-19T00:11:30;98722.94;;;21.04;63.80
72855;BME280;60991;51.278;22.550;2023-09-19T00:13:03;98726.59;;;21.00;64.10
72855;BME280;60991;51.278;22.550;2023-09-19T00:14:34;98716.13;;;20.98;64.11
72855;BME280;60991;51.278;22.550;2023-09-19T00:16:10;98712.63;;;21.06;63.67
72855;BME280;60991;51.278;22.550;2023-09-19T00:17:41;98715.00;;;21.08;63.92
72855;BME280;60991;51.278;22.550;2023-09-19T00:19:11;98712.75;;;21.10;63.62
72855;BME280;60991;51.278;22.550;2023-09-19T00:20:42;98711.34;;;21.13;63.29
72855;BME280;60991;51.278;22.550;2023-09-19T00:22:12;98708.66;;;21.04;63.86
72855;BME280;60991;51.278;22.550;2023-09-19T00:23:42;98706.91;;;20.99;64.08
72855;BME280;60991;51.278;22.550;2023-09-19T00:25:12;98704.53;;;21.06;63.62
72855;BME280;60991;51.278;22.550;2023-09-19T00:26:42;98708.63;;;21.13;63.49
72855;BME280;60991;51.278;22.550;2023-09-19T00:28:13;98710.88;;;21.02;63.72
72855;BME280;60991;51.278;22.550;2023-09-19T00:29:43;98710.94;;;20.85;64.22
72855;BME280;60991;51.278;22.550;2023-09-19T00:31:13;98714.28;;;20.73;64.71
72855;BME280;60991;51.278;22.550;2023-09-19T00:32:43;98709.38;;;20.66;64.98
72855;BME280;60991;51.278;22.550;2023-09-19T00:34:13;98710.16;;;20.67;65.01
72855;BME280;60991;51.278;22.550;2023-09-19T00:35:50;98707.78;;;20.74;64.65
72855;BME280;60991;51.278;22.550;2023-09-19T00:37:21;98706.47;;;20.80;64.56
72855;BME280;60991;51.278;22.550;2023-09-19T00:38:51;98709.19;;;20.80;64.45
72855;BME280;60991;51.278;22.550;2023-09-19T00:40:21;98707.47;;;20.76;64.58
72855;BME280;60991;51.278;22.550;2023-09-19T00:41:51;98702.53;;;20.78;64.46
72855;BME280;60991;51.278;22.550;2023-09-19T00:43:22;98707.44;;;20.84;64.52
72855;BME280;60991;51.278;22.550;2023-09-19T00:44:52;98698.59;;;20.75;64.46
72855;BME280;60991;51.278;22.550;2023-09-19T00:46:22;98701.56;;;20.82;64.45
72855;BME280;60991;51.278;22.550;2023-09-19T00:47:52;98697.59;;;20.80;64.46
72855;BME280;60991;51.278;22.550;2023-09-19T00:49:23;98698.38;;;20.80;64.52
72855;BME280;60991;51.278;22.550;2023-09-19T00:50:53;98696.63;;;20.84;64.12
72855;BME280;60991;51.278;22.550;2023-09-19T00:52:24;98684.88;;;20.89;64.21
72855;BME280;60991;51.278;22.550;2023-09-19T00:53:54;98694.88;;;20.88;64.19
72855;BME280;60991;51.278;22.550;2023-09-19T00:55:25;98691.41;;;20.88;64.13
72855;BME280;60991;51.278;22.550;2023-09-19T00:56:55;98692.41;;;20.74;64.43
72855;BME280;60991;51.278;22.550;2023-09-19T00:58:26;98689.84;;;20.69;64.67
72855;BME280;60991;51.278;22.550;2023-09-19T00:59:56;98689.69;;;20.66;64.77
72855;BME280;60991;51.278;22.550;2023-09-19T01:01:27;98685.72;;;20.63;64.91
72855;BME280;60991;51.278;22.550;2023-09-19T01:02:57;98687.63;;;20.63;64.83
72855;BME280;60991;51.278;22.550;2023-09-19T01:04:27;98682.56;;;20.61;64.92
72855;BME280;60991;51.278;22.550;2023-09-19T01:05:59;98682.44;;;20.58;64.95
72855;BME280;60991;51.278;22.550;2023-09-19T01:07:30;98678.75;;;20.62;64.80
72855;BME280;60991;51.278;22.550;2023-09-19T01:09:01;98685.09;;;20.66;64.63
72855;BME280;60991;51.278;22.550;2023-09-19T01:10:33;98681.59;;;20.66;64.69
72855;BME280;60991;51.278;22.550;2023-09-19T01:12:05;98672.75;;;20.57;64.87
72855;BME280;60991;51.278;22.550;2023-09-19T01:15:55;98669.06;;;20.70;64.35
72855;BME280;60991;51.278;22.550;2023-09-19T01:17:45;98671.63;;;20.66;64.25
72855;BME280;60991;51.278;22.550;2023-09-19T01:21:22;98666.56;;;20.56;64.91
72855;BME280;60991;51.278;22.550;2023-09-19T01:23:13;98663.25;;;20.51;65.00
72855;BME280;60991;51.278;22.550;2023-09-19T01:30:44;98651.81;;;20.45;65.27
72855;BME280;60991;51.278;22.550;2023-09-19T01:32:19;98644.72;;;20.41;65.49
72855;BME280;60991;51.278;22.550;2023-09-19T01:33:54;98643.91;;;20.49;65.05
72855;BME280;60991;51.278;22.550;2023-09-19T01:35:25;98638.03;;;20.55;64.77
72855;BME280;60991;51.278;22.550;2023-09-19T01:36:55;98636.13;;;20.56;64.76
72855;BME280;60991;51.278;22.550;2023-09-19T01:38:25;98629.41;;;20.62;64.58
72855;BME280;60991;51.278;22.550;2023-09-19T01:40:04;98630.38;;;20.66;64.32
72855;BME280;60991;51.278;22.550;2023-09-19T01:41:54;98638.13;;;20.67;64.24
72855;BME280;60991;51.278;22.550;2023-09-19T01:43:32;98638.94;;;20.68;64.15
72855;BME280;60991;51.278;22.550;2023-09-19T01:47:04;98620.41;;;20.49;64.76
72855;BME280;60991;51.278;22.550;2023-09-19T01:50:32;98621.69;;;20.26;65.62
72855;BME280;60991;51.278;22.550;2023-09-19T01:52:13;98628.19;;;20.25;65.73
72855;BME280;60991;51.278;22.550;2023-09-19T01:53:56;98619.31;;;20.33;65.36
72855;BME280;60991;51.278;22.550;2023-09-19T01:55:30;98628.84;;;20.39;65.26
72855;BME280;60991;51.278;22.550;2023-09-19T01:57:09;98628.97;;;20.25;65.65
72855;BME280;60991;51.278;22.550;2023-09-19T01:58:51;98626.44;;;20.29;65.45
72855;BME280;60991;51.278;22.550;2023-09-19T02:00:25;98625.50;;;20.25;65.69
72855;BME280;60991;51.278;22.550;2023-09-19T02:01:59;98623.00;;;20.37;65.32
72855;BME280;60991;51.278;22.550;2023-09-19T02:03:31;98617.88;;;20.27;65.57
72855;BME280;60991;51.278;22.550;2023-09-19T02:05:02;98624.69;;;20.24;65.62
72855;BME280;60991;51.278;22.550;2023-09-19T02:06:33;98613.31;;;20.19;65.81
72855;BME280;60991;51.278;22.550;2023-09-19T02:08:03;98611.72;;;20.18;65.71
72855;BME280;60991;51.278;22.550;2023-09-19T02:09:34;98613.31;;;20.19;65.78
72855;BME280;60991;51.278;22.550;2023-09-19T02:11:04;98613.31;;;20.19;65.61
72855;BME280;60991;51.278;22.550;2023-09-19T02:12:34;98610.47;;;20.15;65.77
72855;BME280;60991;51.278;22.550;2023-09-19T02:14:04;98612.22;;;20.20;66.01
72855;BME280;60991;51.278;22.550;2023-09-19T02:15:35;98613.31;;;20.10;66.14
72855;BME280;60991;51.278;22.550;2023-09-19T02:17:05;98608.88;;;20.05;66.29
72855;BME280;60991;51.278;22.550;2023-09-19T02:18:35;98609.50;;;20.11;66.11
72855;BME280;60991;51.278;22.550;2023-09-19T02:20:05;98604.28;;;20.15;65.85
72855;BME280;60991;51.278;22.550;2023-09-19T02:21:36;98605.56;;;20.17;65.78
72855;BME280;60991;51.278;22.550;2023-09-19T02:23:07;98604.91;;;20.12;66.07
72855;BME280;60991;51.278;22.550;2023-09-19T02:24:37;98600.78;;;20.05;66.24
72855;BME280;60991;51.278;22.550;2023-09-19T02:26:08;98594.28;;;20.06;66.04
72855;BME280;60991;51.278;22.550;2023-09-19T02:27:38;98594.44;;;20.10;66.13
72855;BME280;60991;51.278;22.550;2023-09-19T02:29:08;98598.91;;;20.15;65.89
72855;BME280;60991;51.278;22.550;2023-09-19T02:30:38;98593.94;;;20.25;65.43
72855;BME280;60991;51.278;22.550;2023-09-19T02:32:09;98592.56;;;20.19;65.73
72855;BME280;60991;51.278;22.550;2023-09-19T02:33:39;98602.22;;;20.20;65.70
72855;BME280;60991;51.278;22.550;2023-09-19T02:35:09;98587.16;;;20.11;66.01
72855;BME280;60991;51.278;22.550;2023-09-19T02:36:39;98592.88;;;20.09;66.09
72855;BME280;60991;51.278;22.550;2023-09-19T02:38:09;98591.44;;;20.12;65.99
72855;BME280;60991;51.278;22.550;2023-09-19T02:39:40;98586.53;;;20.05;66.18
72855;BME280;60991;51.278;22.550;2023-09-19T02:41:10;98589.69;;;20.07;66.20
72855;BME280;60991;51.278;22.550;2023-09-19T02:42:42;98584.47;;;20.11;66.10
72855;BME280;60991;51.278;22.550;2023-09-19T02:44:12;98591.13;;;20.13;65.84
72855;BME280;60991;51.278;22.550;2023-09-19T02:45:43;98584.47;;;20.11;65.93
72855;BME280;60991;51.278;22.550;2023-09-19T02:47:13;98584.31;;;20.07;66.07
72855;BME280;60991;51.278;22.550;2023-09-19T02:48:43;98582.25;;;20.04;66.33
72855;BME280;60991;51.278;22.550;2023-09-19T02:50:14;98593.53;;;19.97;66.55
72855;BME280;60991;51.278;22.550;2023-09-19T02:51:44;98589.41;;;20.00;66.29
72855;BME280;60991;51.278;22.550;2023-09-19T02:53:15;98571.34;;;20.00;66.40
72855;BME280;60991;51.278;22.550;2023-09-19T02:54:45;98576.25;;;19.98;66.35
72855;BME280;60991;51.278;22.550;2023-09-19T02:56:15;98578.63;;;19.91;66.75
72855;BME280;60991;51.278;22.550;2023-09-19T02:57:54;98588.44;;;19.87;66.91
72855;BME280;60991;51.278;22.550;2023-09-19T02:59:25;98587.03;;;19.81;67.22
72855;BME280;60991;51.278;22.550;2023-09-19T03:00:55;98579.44;;;19.83;67.09
72855;BME280;60991;51.278;22.550;2023-09-19T03:02:25;98572.44;;;19.74;67.47
72855;BME280;60991;51.278;22.550;2023-09-19T03:03:55;98568.34;;;19.76;67.39
72855;BME280;60991;51.278;22.550;2023-09-19T03:05:25;98573.88;;;19.80;67.31
72855;BME280;60991;51.278;22.550;2023-09-19T03:06:56;98571.97;;;19.80;67.12
72855;BME280;60991;51.278;22.550;2023-09-19T03:08:26;98576.44;;;19.85;67.11
72855;BME280;60991;51.278;22.550;2023-09-19T03:09:56;98563.41;;;19.87;66.88
72855;BME280;60991;51.278;22.550;2023-09-19T03:11:26;98561.19;;;19.89;67.02
72855;BME280;60991;51.278;22.550;2023-09-19T03:12:57;98561.50;;;19.87;66.94
72855;BME280;60991;51.278;22.550;2023-09-19T03:14:27;98559.47;;;19.84;67.16
72855;BME280;60991;51.278;22.550;2023-09-19T03:15:58;98562.78;;;19.90;66.89
72855;BME280;60991;51.278;22.550;2023-09-19T03:17:28;98562.97;;;19.85;67.15
72855;BME280;60991;51.278;22.550;2023-09-19T03:18:58;98563.56;;;19.90;66.79
72855;BME280;60991;51.278;22.550;2023-09-19T03:20:28;98555.66;;;19.85;66.89
72855;BME280;60991;51.278;22.550;2023-09-19T03:21:59;98558.38;;;19.85;67.12
72855;BME280;60991;51.278;22.550;2023-09-19T03:23:29;98555.19;;;19.83;67.25
72855;BME280;60991;51.278;22.550;2023-09-19T03:24:59;98547.44;;;19.82;67.12
72855;BME280;60991;51.278;22.550;2023-09-19T03:26:30;98547.59;;;19.85;67.25
72855;BME280;60991;51.278;22.550;2023-09-19T03:28:00;98556.31;;;19.82;67.17
72855;BME280;60991;51.278;22.550;2023-09-19T03:29:30;98550.75;;;19.79;67.16
72855;BME280;60991;51.278;22.550;2023-09-19T03:31:02;98549.00;;;19.83;67.11
72855;BME280;60991;51.278;22.550;2023-09-19T03:32:32;98550.28;;;19.85;67.16
72855;BME280;60991;51.278;22.550;2023-09-19T03:34:02;98545.53;;;19.82;67.03
72855;BME280;60991;51.278;22.550;2023-09-19T03:35:33;98546.78;;;19.85;66.98
72855;BME280;60991;51.278;22.550;2023-09-19T03:37:03;98544.41;;;19.83;67.02
72855;BME280;60991;51.278;22.550;2023-09-19T03:38:34;98546.78;;;19.76;67.45
72855;BME280;60991;51.278;22.550;2023-09-19T03:40:04;98538.38;;;19.86;67.03
72855;BME280;60991;51.278;22.550;2023-09-19T03:41:35;98538.72;;;19.85;66.83
72855;BME280;60991;51.278;22.550;2023-09-19T03:43:05;98543.91;;;19.90;66.78
72855;BME280;60991;51.278;22.550;2023-09-19T03:44:35;98534.25;;;19.89;66.89
72855;BME280;60991;51.278;22.550;2023-09-19T03:46:05;98535.03;;;19.89;66.37
72855;BME280;60991;51.278;22.550;2023-09-19T03:47:35;98536.31;;;19.92;66.87
72855;BME280;60991;51.278;22.550;2023-09-19T03:49:06;98536.94;;;19.97;66.54
72855;BME280;60991;51.278;22.550;2023-09-19T03:50:36;98534.41;;;19.92;66.70
72855;BME280;60991;51.278;22.550;2023-09-19T03:52:06;98538.84;;;19.88;66.82
72855;BME280;60991;51.278;22.550;2023-09-19T03:53:37;98540.28;;;19.86;66.80
72855;BME280;60991;51.278;22.550;2023-09-19T03:55:07;98538.06;;;19.96;66.51
72855;BME280;60991;51.278;22.550;2023-09-19T03:56:37;98535.03;;;19.89;66.63
72855;BME280;60991;51.278;22.550;2023-09-19T03:58:08;98539.31;;;19.90;66.58
72855;BME280;60991;51.278;22.550;2023-09-19T03:59:38;98539.03;;;19.83;66.81
72855;BME280;60991;51.278;22.550;2023-09-19T04:01:08;98532.38;;;19.81;66.89
72855;BME280;60991;51.278;22.550;2023-09-19T04:02:39;98535.53;;;19.74;67.06
72855;BME280;60991;51.278;22.550;2023-09-19T04:04:09;98537.56;;;19.86;66.64
72855;BME280;60991;51.278;22.550;2023-09-19T04:05:39;98539.63;;;19.89;66.59
72855;BME280;60991;51.278;22.550;2023-09-19T04:07:10;98536.16;;;19.88;66.53
72855;BME280;60991;51.278;22.550;2023-09-19T04:08:40;98536.31;;;19.92;66.39
72855;BME280;60991;51.278;22.550;2023-09-19T04:10:10;98534.22;;;20.06;65.96
72855;BME280;60991;51.278;22.550;2023-09-19T04:11:41;98534.22;;;20.06;65.77
72855;BME280;60991;51.278;22.550;2023-09-19T04:13:11;98528.03;;;20.05;65.82
72855;BME280;60991;51.278;22.550;2023-09-19T04:14:41;98532.16;;;20.12;65.58
72855;BME280;60991;51.278;22.550;2023-09-19T04:16:11;98525.34;;;20.05;65.71
72855;BME280;60991;51.278;22.550;2023-09-19T04:17:41;98525.66;;;20.04;65.74
72855;BME280;60991;51.278;22.550;2023-09-19T04:19:12;98518.72;;;20.03;65.95
72855;BME280;60991;51.278;22.550;2023-09-19T04:20:48;98520.31;;;19.95;66.20
72855;BME280;60991;51.278;22.550;2023-09-19T04:22:18;98515.56;;;20.01;65.89
72855;BME280;60991;51.278;22.550;2023-09-19T04:23:48;98514.88;;;20.04;65.79
72855;BME280;60991;51.278;22.550;2023-09-19T04:25:18;98515.69;;;20.04;65.86
72855;BME280;60991;51.278;22.550;2023-09-19T04:26:48;98512.66;;;20.06;65.89
72855;BME280;60991;51.278;22.550;2023-09-19T04:28:19;98509.03;;;20.11;65.58
72855;BME280;60991;51.278;22.550;2023-09-19T04:29:49;98510.44;;;20.08;65.69
72855;BME280;60991;51.278;22.550;2023-09-19T04:31:19;98500.94;;;20.11;65.50
72855;BME280;60991;51.278;22.550;2023-09-19T04:32:49;98510.59;;;20.12;65.52
72855;BME280;60991;51.278;22.550;2023-09-19T04:34:20;98506.78;;;20.13;65.51
72855;BME280;60991;51.278;22.550;2023-09-19T04:35:50;98502.66;;;20.15;64.99
72855;BME280;60991;51.278;22.550;2023-09-19T04:37:20;98506.00;;;20.12;65.47
72855;BME280;60991;51.278;22.550;2023-09-19T04:38:50;98503.94;;;20.09;65.54
72855;BME280;60991;51.278;22.550;2023-09-19T04:40:20;98504.47;;;20.02;65.86
72855;BME280;60991;51.278;22.550;2023-09-19T04:41:51;98500.66;;;20.03;65.71
72855;BME280;60991;51.278;22.550;2023-09-19T04:43:21;98498.28;;;20.02;65.92
72855;BME280;60991;51.278;22.550;2023-09-19T04:44:51;98503.34;;;20.03;65.70
72855;BME280;60991;51.278;22.550;2023-09-19T04:46:22;98500.34;;;19.96;66.03
72855;BME280;60991;51.278;22.550;2023-09-19T04:47:53;98502.25;;;19.96;65.86
72855;BME280;60991;51.278;22.550;2023-09-19T04:49:23;98503.81;;;19.97;66.00
72855;BME280;60991;51.278;22.550;2023-09-19T04:50:53;98501.28;;;19.92;66.13
72855;BME280;60991;51.278;22.550;2023-09-19T04:52:23;98501.00;;;19.85;66.63
72855;BME280;60991;51.278;22.550;2023-09-19T04:53:53;98497.66;;;19.88;66.48
72855;BME280;60991;51.278;22.550;2023-09-19T04:55:24;98503.22;;;19.83;66.60
72855;BME280;60991;51.278;22.550;2023-09-19T04:56:54;98500.06;;;19.81;66.72
72855;BME280;60991;51.278;22.550;2023-09-19T04:58:24;98497.22;;;19.77;66.59
72855;BME280;60991;51.278;22.550;2023-09-19T04:59:54;98495.94;;;19.75;66.59
72855;BME280;60991;51.278;22.550;2023-09-19T05:01:25;98498.78;;;19.78;66.64
72855;BME280;60991;51.278;22.550;2023-09-19T05:02:56;98499.75;;;19.82;66.71
72855;BME280;60991;51.278;22.550;2023-09-19T05:04:26;98493.84;;;19.89;66.31
72855;BME280;60991;51.278;22.550;2023-09-19T05:05:57;98498.91;;;19.90;66.20
72855;BME280;60991;51.278;22.550;2023-09-19T05:07:27;98492.25;;;19.88;66.58
72855;BME280;60991;51.278;22.550;2023-09-19T05:08:57;98500.19;;;19.93;66.10
72855;BME280;60991;51.278;22.550;2023-09-19T05:10:27;98502.13;;;19.84;66.37
72855;BME280;60991;51.278;22.550;2023-09-19T05:11:57;98500.53;;;19.83;66.43
72855;BME280;60991;51.278;22.550;2023-09-19T05:13:28;98493.72;;;19.85;66.24
72855;BME280;60991;51.278;22.550;2023-09-19T05:14:58;98492.09;;;19.93;66.01
72855;BME280;60991;51.278;22.550;2023-09-19T05:16:28;98487.97;;;19.95;66.08
72855;BME280;60991;51.278;22.550;2023-09-19T05:17:58;98485.94;;;19.92;66.16
72855;BME280;60991;51.278;22.550;2023-09-19T05:19:29;98483.41;;;19.87;66.19
72855;BME280;60991;51.278;22.550;2023-09-19T05:21:02;98489.56;;;19.88;66.09
72855;BME280;60991;51.278;22.550;2023-09-19T05:22:32;98484.50;;;19.86;66.11
72855;BME280;60991;51.278;22.550;2023-09-19T05:24:02;98481.38;;;19.84;66.34
72855;BME280;60991;51.278;22.550;2023-09-19T05:25:34;98487.03;;;19.91;66.11
72855;BME280;60991;51.278;22.550;2023-09-19T05:27:04;98481.97;;;19.90;65.95
72855;BME280;60991;51.278;22.550;2023-09-19T05:28:35;98480.38;;;19.89;66.10
72855;BME280;60991;51.278;22.550;2023-09-19T05:30:05;98479.47;;;19.85;66.16
72855;BME280;60991;51.278;22.550;2023-09-19T05:31:35;98475.63;;;19.86;66.08
72855;BME280;60991;51.278;22.550;2023-09-19T05:33:06;98478.63;;;19.93;65.73
72855;BME280;60991;51.278;22.550;2023-09-19T05:34:37;98473.72;;;19.95;65.79
72855;BME280;60991;51.278;22.550;2023-09-19T05:36:08;98478.00;;;19.96;65.71
72855;BME280;60991;51.278;22.550;2023-09-19T05:37:38;98465.63;;;19.95;65.73
72855;BME280;60991;51.278;22.550;2023-09-19T05:39:09;98464.06;;;19.94;65.75
72855;BME280;60991;51.278;22.550;2023-09-19T05:40:39;98462.00;;;19.99;65.50
72855;BME280;60991;51.278;22.550;2023-09-19T05:42:10;98462.78;;;20.00;65.53
72855;BME280;60991;51.278;22.550;2023-09-19T05:43:40;98468.00;;;19.96;65.30
72855;BME280;60991;51.278;22.550;2023-09-19T05:45:11;98463.25;;;19.93;65.59
72855;BME280;60991;51.278;22.550;2023-09-19T05:46:42;98459.00;;;19.92;65.60
72855;BME280;60991;51.278;22.550;2023-09-19T05:48:13;98476.25;;;20.00;65.41
72855;BME280;60991;51.278;22.550;2023-09-19T05:49:44;98471.03;;;19.95;65.41
72855;BME280;60991;51.278;22.550;2023-09-19T05:51:14;98466.75;;;19.94;65.60
72855;BME280;60991;51.278;22.550;2023-09-19T05:52:51;98464.38;;;19.92;65.40
72855;BME280;60991;51.278;22.550;2023-09-19T05:54:22;98468.50;;;19.90;65.88
72855;BME280;60991;51.278;22.550;2023-09-19T05:55:52;98468.66;;;19.93;65.67
72855;BME280;60991;51.278;22.550;2023-09-19T05:57:22;98462.63;;;19.96;65.74
72855;BME280;60991;51.278;22.550;2023-09-19T05:58:52;98463.41;;;19.97;65.46
72855;BME280;60991;51.278;22.550;2023-09-19T06:00:23;98467.38;;;19.99;65.43
72855;BME280;60991;51.278;22.550;2023-09-19T06:01:53;98468.16;;;20.00;65.68
72855;BME280;60991;51.278;22.550;2023-09-19T06:03:24;98470.66;;;20.05;65.43
72855;BME280;60991;51.278;22.550;2023-09-19T06:04:54;98463.22;;;20.11;65.24
72855;BME280;60991;51.278;22.550;2023-09-19T06:06:25;98467.63;;;20.15;65.21
72855;BME280;60991;51.278;22.550;2023-09-19T06:07:55;98465.06;;;20.27;64.94
72855;BME280;60991;51.278;22.550;2023-09-19T06:09:25;98472.16;;;20.32;64.88
72855;BME280;60991;51.278;22.550;2023-09-19T06:10:55;98474.06;;;20.31;64.69
72855;BME280;60991;51.278;22.550;2023-09-19T06:12:25;98464.56;;;20.34;64.69
72855;BME280;60991;51.278;22.550;2023-09-19T06:13:56;98467.91;;;20.39;64.46
72855;BME280;60991;51.278;22.550;2023-09-19T06:15:26;98474.19;;;20.44;64.59
72855;BME280;60991;51.278;22.550;2023-09-19T06:16:56;98472.28;;;20.53;64.36
72855;BME280;60991;51.278;22.550;2023-09-19T06:18:26;98468.63;;;20.57;64.23
72855;BME280;60991;51.278;22.550;2023-09-19T06:19:56;98470.00;;;20.63;63.96
72855;BME280;60991;51.278;22.550;2023-09-19T06:21:27;98461.56;;;20.65;63.55
72855;BME280;60991;51.278;22.550;2023-09-19T06:22:57;98472.19;;;20.70;63.54
72855;BME280;60991;51.278;22.550;2023-09-19T06:24:28;98459.31;;;20.76;63.32
72855;BME280;60991;51.278;22.550;2023-09-19T06:25:58;98470.34;;;20.83;63.34
72855;BME280;60991;51.278;22.550;2023-09-19T06:27:28;98471.09;;;20.92;62.97
72855;BME280;60991;51.278;22.550;2023-09-19T06:28:58;98464.44;;;20.89;63.02
72855;BME280;60991;51.278;22.550;2023-09-19T06:30:28;98474.13;;;20.90;62.81
72855;BME280;60991;51.278;22.550;2023-09-19T06:31:58;98470.31;;;20.91;63.07
72855;BME280;60991;51.278;22.550;2023-09-19T06:33:29;98466.28;;;20.97;62.80
72855;BME280;60991;51.278;22.550;2023-09-19T06:34:59;98470.78;;;20.93;63.01
72855;BME280;60991;51.278;22.550;2023-09-19T06:36:29;98466.81;;;20.91;62.79
72855;BME280;60991;51.278;22.550;2023-09-19T06:38:03;98468.59;;;20.87;62.86
72855;BME280;60991;51.278;22.550;2023-09-19T06:39:34;98470.03;;;20.84;62.99
72855;BME280;60991;51.278;22.550;2023-09-19T06:41:04;98465.25;;;20.90;63.12
72855;BME280;60991;51.278;22.550;2023-09-19T06:42:34;98475.38;;;20.93;62.92
72855;BME280;60991;51.278;22.550;2023-09-19T06:44:05;98470.00;;;20.93;63.07
72855;BME280;60991;51.278;22.550;2023-09-19T06:45:35;98486.44;;;21.00;62.90
72855;BME280;60991;51.278;22.550;2023-09-19T06:47:05;98476.75;;;20.99;63.10
72855;BME280;60991;51.278;22.550;2023-09-19T06:48:36;98484.66;;;21.04;62.95
72855;BME280;60991;51.278;22.550;2023-09-19T06:50:06;98478.16;;;21.05;62.69
72855;BME280;60991;51.278;22.550;2023-09-19T06:51:36;98487.19;;;21.09;62.66
72855;BME280;60991;51.278;22.550;2023-09-19T06:53:07;98486.47;;;21.21;62.65
72855;BME280;60991;51.278;22.550;2023-09-19T06:54:37;98489.31;;;21.24;62.40
72855;BME280;60991;51.278;22.550;2023-09-19T06:56:07;98490.91;;;21.25;62.31
72855;BME280;60991;51.278;22.550;2023-09-19T06:57:37;98490.75;;;21.22;62.26
72855;BME280;60991;51.278;22.550;2023-09-19T06:59:07;98494.41;;;21.17;62.11
72855;BME280;60991;51.278;22.550;2023-09-19T07:00:38;98492.38;;;21.14;62.45
72855;BME280;60991;51.278;22.550;2023-09-19T07:02:08;98501.59;;;21.13;62.05
72855;BME280;60991;51.278;22.550;2023-09-19T07:03:38;98499.56;;;21.10;61.92
72855;BME280;60991;51.278;22.550;2023-09-19T07:05:08;98498.75;;;21.09;62.17
72855;BME280;60991;51.278;22.550;2023-09-19T07:06:38;98495.47;;;21.04;62.41
72855;BME280;60991;51.278;22.550;2023-09-19T07:08:10;98507.56;;;20.98;62.38
72855;BME280;60991;51.278;22.550;2023-09-19T07:09:40;98503.28;;;20.97;62.80
72855;BME280;60991;51.278;22.550;2023-09-19T07:11:11;98511.50;;;21.00;62.82
72855;BME280;60991;51.278;22.550;2023-09-19T07:12:41;98507.38;;;21.03;62.91
72855;BME280;60991;51.278;22.550;2023-09-19T07:14:11;98515.00;;;21.01;62.60
72855;BME280;60991;51.278;22.550;2023-09-19T07:15:41;98517.56;;;20.97;63.10
72855;BME280;60991;51.278;22.550;2023-09-19T07:17:12;98509.81;;;20.96;63.25
72855;BME280;60991;51.278;22.550;2023-09-19T07:18:42;98508.22;;;20.95;63.44
72855;BME280;60991;51.278;22.550;2023-09-19T07:20:12;98509.34;;;20.94;63.45
72855;BME280;60991;51.278;22.550;2023-09-19T07:21:43;98508.22;;;20.95;63.29
72855;BME280;60991;51.278;22.550;2023-09-19T07:23:13;98503.00;;;20.90;63.57
72855;BME280;60991;51.278;22.550;2023-09-19T07:24:43;98506.97;;;20.92;63.26
72855;BME280;60991;51.278;22.550;2023-09-19T07:26:13;98497.44;;;20.95;63.11
72855;BME280;60991;51.278;22.550;2023-09-19T07:27:44;98509.13;;;20.99;62.88
72855;BME280;60991;51.278;22.550;2023-09-19T07:29:14;98515.22;;;20.96;62.94
72855;BME280;60991;51.278;22.550;2023-09-19T07:30:44;98508.41;;;20.90;63.04
72855;BME280;60991;51.278;22.550;2023-09-19T07:32:14;98517.63;;;20.89;63.05
72855;BME280;60991;51.278;22.550;2023-09-19T07:33:44;98514.28;;;20.92;63.17
72855;BME280;60991;51.278;22.550;2023-09-19T07:35:15;98521.84;;;20.98;63.04
72855;BME280;60991;51.278;22.550;2023-09-19T07:36:45;98518.03;;;20.99;63.09
72855;BME280;60991;51.278;22.550;2023-09-19T07:38:15;98513.56;;;21.03;62.94
72855;BME280;60991;51.278;22.550;2023-09-19T07:39:45;98520.69;;;21.08;62.70
72855;BME280;60991;51.278;22.550;2023-09-19T07:41:15;98519.09;;;21.07;62.96
72855;BME280;60991;51.278;22.550;2023-09-19T07:42:46;98521.47;;;21.08;62.62
72855;BME280;60991;51.278;22.550;2023-09-19T07:44:16;98526.72;;;21.05;62.68
72855;BME280;60991;51.278;22.550;2023-09-19T07:45:46;98528.97;;;21.03;62.74
72855;BME280;60991;51.278;22.550;2023-09-19T07:47:16;98528.97;;;21.03;62.92
72855;BME280;60991;51.278;22.550;2023-09-19T07:48:47;98527.84;;;21.04;62.68
72855;BME280;60991;51.278;22.550;2023-09-19T07:50:18;98534.50;;;21.06;62.65
72855;BME280;60991;51.278;22.550;2023-09-19T07:51:48;98524.03;;;21.05;62.33
72855;BME280;60991;51.278;22.550;2023-09-19T07:53:19;98529.13;;;20.98;62.60
72855;BME280;60991;51.278;22.550;2023-09-19T07:54:49;98531.84;;;20.98;62.67
72855;BME280;60991;51.278;22.550;2023-09-19T07:56:19;98543.94;;;20.92;62.65
72855;BME280;60991;51.278;22.550;2023-09-19T07:57:49;98527.78;;;20.83;62.85
72855;BME280;60991;51.278;22.550;2023-09-19T07:59:19;98530.03;;;20.81;62.90
72855;BME280;60991;51.278;22.550;2023-09-19T08:00:50;98533.84;;;20.80;62.83
72855;BME280;60991;51.278;22.550;2023-09-19T08:02:20;98532.41;;;20.83;62.79
72855;BME280;60991;51.278;22.550;2023-09-19T08:03:50;98526.84;;;20.79;62.81
72855;BME280;60991;51.278;22.550;2023-09-19T08:05:20;98529.44;;;20.76;63.05
72855;BME280;60991;51.278;22.550;2023-09-19T08:06:51;98536.75;;;20.75;62.98
72855;BME280;60991;51.278;22.550;2023-09-19T08:08:21;98537.72;;;20.70;63.19
72855;BME280;60991;51.278;22.550;2023-09-19T08:09:51;98532.63;;;20.69;63.34